sensor_id;sensor_type;location;lat;lon;timestamp;P1;durP1;ratioP1;P2;durP2;ratioP2
63276;SDS011;49403;51.046;13.780;2022-11-15T00:00:01;42.28;;;23.58;;
63276;SDS011;49403;51.046;13.780;2022-11-15T00:00:33;41.25;;;22.83;;
63276;SDS011;49403;51.046;13.780;2022-11-15T00:01:08;43.03;;;23.00;;
63276;SDS011;49403;51.046;13.780;2022-11-15T00:01:40;40.47;;;23.02;;
63276;SDS011;49403;51.046;13.780;2022-11-15T00:02:10;42.20;;;23.80;;
63276;SDS011;49403;51.046;13.780;2022-11-15T00:02:41;44.72;;;24.60;;
63276;SDS011;49403;51.046;13.780;2022-11-15T00:03:16;47.05;;;23.70;;
63276;SDS011;49403;51.046;13.780;2022-11-15T00:03:50;42.30;;;22.80;;
63276;SDS011;49403;51.046;13.780;2022-11-15T00:04:22;40.50;;;23.08;;
63276;SDS011;49403;51.046;13.780;2022-11-15T00:04:52;42.85;;;23.60;;
63276;SDS011;49403;51.046;13.780;2022-11-15T00:05:23;40.25;;;22.77;;
63276;SDS011;49403;51.046;13.780;2022-11-15T00:05:54;45.25;;;24.45;;
63276;SDS011;49403;51.046;13.780;2022-11-15T00:06:31;44.17;;;23.75;;
63276;SDS011;49403;51.046;13.780;2022-11-15T00:07:02;42.45;;;23.15;;
63276;SDS011;49403;51.046;13.780;2022-11-15T00:07:33;40.33;;;22.83;;
63276;SDS011;49403;51.046;13.780;2022-11-15T00:08:03;45.60;;;23.55;;
63276;SDS011;49403;51.046;13.780;2022-11-15T00:08:34;42.65;;;23.38;;
63276;SDS011;49403;51.046;13.780;2022-11-15T00:09:05;41.85;;;23.40;;
63276;SDS011;49403;51.046;13.780;2022-11-15T00:09:36;46.70;;;24.58;;
63276;SDS011;49403;51.046;13.780;2022-11-15T00:10:07;41.95;;;23.20;;
63276;SDS011;49403;51.046;13.780;2022-11-15T00:10:38;39.33;;;23.52;;
63276;SDS011;49403;51.046;13.780;2022-11-15T00:11:09;41.15;;;23.75;;
63276;SDS011;49403;51.046;13.780;2022-11-15T00:11:41;42.08;;;24.13;;
63276;SDS011;49403;51.046;13.780;2022-11-15T00:12:12;43.33;;;23.73;;
63276;SDS011;49403;51.046;13.780;2022-11-15T00:12:43;41.22;;;23.88;;
63276;SDS011;49403;51.046;13.780;2022-11-15T00:13:14;42.15;;;23.65;;
63276;SDS011;49403;51.046;13.780;2022-11-15T00:13:45;41.92;;;23.48;;
63276;SDS011;49403;51.046;13.780;2022-11-15T00:14:15;39.65;;;23.42;;
63276;SDS011;49403;51.046;13.780;2022-11-15T00:14:46;45.38;;;24.00;;
63276;SDS011;49403;51.046;13.780;2022-11-15T00:15:17;47.75;;;24.27;;
63276;SDS011;49403;51.046;13.780;2022-11-15T00:15:48;45.00;;;23.63;;
63276;SDS011;49403;51.046;13.780;2022-11-15T00:16:19;45.95;;;24.73;;
63276;SDS011;49403;51.046;13.780;2022-11-15T00:16:49;45.10;;;23.95;;
63276;SDS011;49403;51.046;13.780;2022-11-15T00:17:20;41.03;;;23.67;;
63276;SDS011;49403;51.046;13.780;2022-11-15T00:17:51;44.72;;;23.63;;
63276;SDS011;49403;51.046;13.780;2022-11-15T00:18:22;42.70;;;23.58;;
63276;SDS011;49403;51.046;13.780;2022-11-15T00:18:52;41.90;;;23.58;;
63276;SDS011;49403;51.046;13.780;2022-11-15T00:19:23;41.75;;;23.23;;
63276;SDS011;49403;51.046;13.780;2022-11-15T00:19:54;41.42;;;24.20;;
63276;SDS011;49403;51.046;13.780;2022-11-15T00:20:25;44.05;;;24.42;;
63276;SDS011;49403;51.046;13.780;2022-11-15T00:21:02;42.28;;;23.92;;
63276;SDS011;49403;51.046;13.780;2022-11-15T00:21:35;43.58;;;23.58;;
63276;SDS011;49403;51.046;13.780;2022-11-15T00:22:06;45.58;;;24.08;;
63276;SDS011;49403;51.046;13.780;2022-11-15T00:22:37;43.63;;;24.55;;
63276;SDS011;49403;51.046;13.780;2022-11-15T00:23:08;40.33;;;23.70;;
63276;SDS011;49403;51.046;13.780;2022-11-15T00:23:39;41.08;;;23.73;;
63276;SDS011;49403;51.046;13.780;2022-11-15T00:24:10;42.38;;;23.45;;
63276;SDS011;49403;51.046;13.780;2022-11-15T00:24:41;45.83;;;23.27;;
63276;SDS011;49403;51.046;13.780;2022-11-15T00:25:12;44.67;;;24.35;;
63276;SDS011;49403;51.046;13.780;2022-11-15T00:25:43;41.35;;;23.20;;
63276;SDS011;49403;51.046;13.780;2022-11-15T00:26:14;44.22;;;23.80;;
63276;SDS011;49403;51.046;13.780;2022-11-15T00:26:45;43.65;;;23.55;;
63276;SDS011;49403;51.046;13.780;2022-11-15T00:27:16;40.35;;;23.65;;
63276;SDS011;49403;51.046;13.780;2022-11-15T00:27:47;42.72;;;23.58;;
63276;SDS011;49403;51.046;13.780;2022-11-15T00:28:17;45.45;;;24.80;;
63276;SDS011;49403;51.046;13.780;2022-11-15T00:28:48;43.15;;;24.33;;
63276;SDS011;49403;51.046;13.780;2022-11-15T00:29:21;41.90;;;23.25;;
63276;SDS011;49403;51.046;13.780;2022-11-15T00:29:52;42.20;;;23.45;;
63276;SDS011;49403;51.046;13.780;2022-11-15T00:30:23;45.88;;;24.25;;
63276;SDS011;49403;51.046;13.780;2022-11-15T00:30:59;44.47;;;22.33;;
63276;SDS011;49403;51.046;13.780;2022-11-15T00:31:31;42.40;;;24.02;;
63276;SDS011;49403;51.046;13.780;2022-11-15T00:32:02;46.35;;;24.13;;
63276;SDS011;49403;51.046;13.780;2022-11-15T00:32:33;45.30;;;24.25;;
63276;SDS011;49403;51.046;13.780;2022-11-15T00:33:04;44.60;;;24.35;;
63276;SDS011;49403;51.046;13.780;2022-11-15T00:33:36;43.92;;;23.58;;
63276;SDS011;49403;51.046;13.780;2022-11-15T00:34:06;43.03;;;23.80;;
63276;SDS011;49403;51.046;13.780;2022-11-15T00:34:37;41.65;;;23.73;;
63276;SDS011;49403;51.046;13.780;2022-11-15T00:35:08;47.10;;;23.35;;
63276;SDS011;49403;51.046;13.780;2022-11-15T00:35:39;44.78;;;24.70;;
63276;SDS011;49403;51.046;13.780;2022-11-15T00:36:10;43.67;;;24.58;;
63276;SDS011;49403;51.046;13.780;2022-11-15T00:36:40;42.85;;;24.20;;
63276;SDS011;49403;51.046;13.780;2022-11-15T00:37:11;43.75;;;24.98;;
63276;SDS011;49403;51.046;13.780;2022-11-15T00:37:42;43.92;;;24.63;;
63276;SDS011;49403;51.046;13.780;2022-11-15T00:38:13;42.88;;;24.23;;
63276;SDS011;49403;51.046;13.780;2022-11-15T00:38:44;44.72;;;24.52;;
63276;SDS011;49403;51.046;13.780;2022-11-15T00:39:15;42.55;;;24.08;;
63276;SDS011;49403;51.046;13.780;2022-11-15T00:39:45;44.50;;;23.88;;
63276;SDS011;49403;51.046;13.780;2022-11-15T00:40:16;45.88;;;23.98;;
63276;SDS011;49403;51.046;13.780;2022-11-15T00:40:47;44.80;;;22.75;;
63276;SDS011;49403;51.046;13.780;2022-11-15T00:41:18;41.00;;;23.90;;
63276;SDS011;49403;51.046;13.780;2022-11-15T00:41:49;42.08;;;23.85;;
63276;SDS011;49403;51.046;13.780;2022-11-15T00:42:19;50.88;;;26.00;;
63276;SDS011;49403;51.046;13.780;2022-11-15T00:42:50;51.08;;;25.52;;
63276;SDS011;49403;51.046;13.780;2022-11-15T00:43:21;46.65;;;25.45;;
63276;SDS011;49403;51.046;13.780;2022-11-15T00:43:52;42.70;;;24.27;;
63276;SDS011;49403;51.046;13.780;2022-11-15T00:44:22;45.42;;;24.63;;
63276;SDS011;49403;51.046;13.780;2022-11-15T00:44:53;43.13;;;24.67;;
63276;SDS011;49403;51.046;13.780;2022-11-15T00:45:24;46.45;;;25.10;;
63276;SDS011;49403;51.046;13.780;2022-11-15T00:45:56;44.17;;;24.00;;
63276;SDS011;49403;51.046;13.780;2022-11-15T00:46:26;44.05;;;24.42;;
63276;SDS011;49403;51.046;13.780;2022-11-15T00:46:57;47.72;;;24.45;;
63276;SDS011;49403;51.046;13.780;2022-11-15T00:47:28;45.58;;;24.15;;
63276;SDS011;49403;51.046;13.780;2022-11-15T00:47:59;46.85;;;25.30;;
63276;SDS011;49403;51.046;13.780;2022-11-15T00:48:29;44.17;;;24.20;;
63276;SDS011;49403;51.046;13.780;2022-11-15T00:49:01;46.67;;;24.30;;
63276;SDS011;49403;51.046;13.780;2022-11-15T00:49:32;43.03;;;24.15;;
63276;SDS011;49403;51.046;13.780;2022-11-15T00:50:03;43.58;;;23.85;;
63276;SDS011;49403;51.046;13.780;2022-11-15T00:50:34;47.83;;;24.20;;
63276;SDS011;49403;51.046;13.780;2022-11-15T00:51:05;47.30;;;25.85;;
63276;SDS011;49403;51.046;13.780;2022-11-15T00:51:36;44.63;;;25.85;;
63276;SDS011;49403;51.046;13.780;2022-11-15T00:52:07;47.08;;;24.48;;
63276;SDS011;49403;51.046;13.780;2022-11-15T00:52:37;49.90;;;24.98;;
63276;SDS011;49403;51.046;13.780;2022-11-15T00:53:08;46.03;;;24.50;;
63276;SDS011;49403;51.046;13.780;2022-11-15T00:53:39;46.28;;;25.30;;
63276;SDS011;49403;51.046;13.780;2022-11-15T00:54:10;46.17;;;25.25;;
63276;SDS011;49403;51.046;13.780;2022-11-15T00:54:41;43.70;;;24.08;;
63276;SDS011;49403;51.046;13.780;2022-11-15T00:55:17;43.25;;;24.17;;
63276;SDS011;49403;51.046;13.780;2022-11-15T00:55:49;48.45;;;24.77;;
63276;SDS011;49403;51.046;13.780;2022-11-15T00:56:20;45.58;;;24.70;;
63276;SDS011;49403;51.046;13.780;2022-11-15T00:56:50;44.95;;;25.23;;
63276;SDS011;49403;51.046;13.780;2022-11-15T00:57:21;47.50;;;24.55;;
63276;SDS011;49403;51.046;13.780;2022-11-15T00:57:52;46.20;;;25.42;;
63276;SDS011;49403;51.046;13.780;2022-11-15T00:58:23;42.45;;;23.95;;
63276;SDS011;49403;51.046;13.780;2022-11-15T00:58:53;44.70;;;24.63;;
63276;SDS011;49403;51.046;13.780;2022-11-15T00:59:24;46.97;;;25.13;;
63276;SDS011;49403;51.046;13.780;2022-11-15T00:59:55;46.60;;;25.00;;
63276;SDS011;49403;51.046;13.780;2022-11-15T01:00:26;46.72;;;25.02;;
63276;SDS011;49403;51.046;13.780;2022-11-15T01:01:04;45.85;;;24.50;;
63276;SDS011;49403;51.046;13.780;2022-11-15T01:01:39;44.60;;;25.15;;
63276;SDS011;49403;51.046;13.780;2022-11-15T01:02:10;45.25;;;24.77;;
63276;SDS011;49403;51.046;13.780;2022-11-15T01:02:41;47.88;;;25.30;;
63276;SDS011;49403;51.046;13.780;2022-11-15T01:03:11;44.97;;;23.83;;
63276;SDS011;49403;51.046;13.780;2022-11-15T01:03:42;46.08;;;24.63;;
63276;SDS011;49403;51.046;13.780;2022-11-15T01:04:13;45.15;;;24.45;;
63276;SDS011;49403;51.046;13.780;2022-11-15T01:04:44;48.30;;;24.58;;
63276;SDS011;49403;51.046;13.780;2022-11-15T01:05:15;46.58;;;25.77;;
63276;SDS011;49403;51.046;13.780;2022-11-15T01:05:46;50.33;;;25.80;;
63276;SDS011;49403;51.046;13.780;2022-11-15T01:06:17;48.78;;;25.42;;
63276;SDS011;49403;51.046;13.780;2022-11-15T01:06:48;51.78;;;25.70;;
63276;SDS011;49403;51.046;13.780;2022-11-15T01:07:19;46.92;;;24.90;;
63276;SDS011;49403;51.046;13.780;2022-11-15T01:07:53;45.75;;;24.55;;
63276;SDS011;49403;51.046;13.780;2022-11-15T01:08:25;47.47;;;24.30;;
63276;SDS011;49403;51.046;13.780;2022-11-15T01:08:55;46.80;;;23.80;;
63276;SDS011;49403;51.046;13.780;2022-11-15T01:09:26;49.42;;;25.48;;
63276;SDS011;49403;51.046;13.780;2022-11-15T01:09:57;48.53;;;24.73;;
63276;SDS011;49403;51.046;13.780;2022-11-15T01:10:28;49.10;;;24.38;;
63276;SDS011;49403;51.046;13.780;2022-11-15T01:11:06;44.95;;;24.67;;
63276;SDS011;49403;51.046;13.780;2022-11-15T01:11:38;48.33;;;25.33;;
63276;SDS011;49403;51.046;13.780;2022-11-15T01:12:09;46.22;;;24.33;;
63276;SDS011;49403;51.046;13.780;2022-11-15T01:12:40;46.80;;;24.08;;
63276;SDS011;49403;51.046;13.780;2022-11-15T01:13:11;47.25;;;24.95;;
63276;SDS011;49403;51.046;13.780;2022-11-15T01:13:42;47.35;;;25.02;;
63276;SDS011;49403;51.046;13.780;2022-11-15T01:14:13;44.75;;;24.73;;
63276;SDS011;49403;51.046;13.780;2022-11-15T01:14:44;45.30;;;25.20;;
63276;SDS011;49403;51.046;13.780;2022-11-15T01:15:14;45.63;;;25.02;;
63276;SDS011;49403;51.046;13.780;2022-11-15T01:15:45;49.88;;;25.25;;
63276;SDS011;49403;51.046;13.780;2022-11-15T01:16:17;46.05;;;24.55;;
63276;SDS011;49403;51.046;13.780;2022-11-15T01:16:48;45.60;;;24.80;;
63276;SDS011;49403;51.046;13.780;2022-11-15T01:17:19;48.78;;;24.88;;
63276;SDS011;49403;51.046;13.780;2022-11-15T01:17:50;45.08;;;25.13;;
63276;SDS011;49403;51.046;13.780;2022-11-15T01:18:21;46.80;;;25.33;;
63276;SDS011;49403;51.046;13.780;2022-11-15T01:18:51;46.67;;;24.60;;
63276;SDS011;49403;51.046;13.780;2022-11-15T01:19:22;48.38;;;25.38;;
63276;SDS011;49403;51.046;13.780;2022-11-15T01:19:53;46.03;;;24.42;;
63276;SDS011;49403;51.046;13.780;2022-11-15T01:20:24;49.00;;;25.40;;
63276;SDS011;49403;51.046;13.780;2022-11-15T01:20:55;46.67;;;25.45;;
63276;SDS011;49403;51.046;13.780;2022-11-15T01:21:26;44.22;;;25.35;;
63276;SDS011;49403;51.046;13.780;2022-11-15T01:21:56;43.83;;;25.02;;
63276;SDS011;49403;51.046;13.780;2022-11-15T01:22:27;44.35;;;24.55;;
63276;SDS011;49403;51.046;13.780;2022-11-15T01:22:58;45.75;;;24.85;;
63276;SDS011;49403;51.046;13.780;2022-11-15T01:23:29;45.20;;;24.77;;
63276;SDS011;49403;51.046;13.780;2022-11-15T01:24:00;47.10;;;24.38;;
63276;SDS011;49403;51.046;13.780;2022-11-15T01:24:30;48.03;;;25.52;;
63276;SDS011;49403;51.046;13.780;2022-11-15T01:25:01;46.78;;;24.23;;
63276;SDS011;49403;51.046;13.780;2022-11-15T01:25:32;47.00;;;25.77;;
63276;SDS011;49403;51.046;13.780;2022-11-15T01:26:04;46.03;;;24.95;;
63276;SDS011;49403;51.046;13.780;2022-11-15T01:26:36;46.17;;;25.50;;
63276;SDS011;49403;51.046;13.780;2022-11-15T01:27:07;48.53;;;25.05;;
63276;SDS011;49403;51.046;13.780;2022-11-15T01:27:38;47.65;;;24.42;;
63276;SDS011;49403;51.046;13.780;2022-11-15T01:28:09;48.78;;;26.08;;
63276;SDS011;49403;51.046;13.780;2022-11-15T01:28:40;46.45;;;25.45;;
63276;SDS011;49403;51.046;13.780;2022-11-15T01:29:11;48.40;;;24.92;;
63276;SDS011;49403;51.046;13.780;2022-11-15T01:29:42;47.78;;;25.10;;
63276;SDS011;49403;51.046;13.780;2022-11-15T01:30:13;50.60;;;24.98;;
63276;SDS011;49403;51.046;13.780;2022-11-15T01:30:44;45.80;;;23.70;;
63276;SDS011;49403;51.046;13.780;2022-11-15T01:31:16;42.08;;;24.13;;
63276;SDS011;49403;51.046;13.780;2022-11-15T01:31:48;46.38;;;24.90;;
63276;SDS011;49403;51.046;13.780;2022-11-15T01:32:19;44.38;;;24.75;;
63276;SDS011;49403;51.046;13.780;2022-11-15T01:32:50;43.58;;;23.50;;
63276;SDS011;49403;51.046;13.780;2022-11-15T01:33:21;50.60;;;24.98;;
63276;SDS011;49403;51.046;13.780;2022-11-15T01:33:51;47.08;;;23.60;;
63276;SDS011;49403;51.046;13.780;2022-11-15T01:34:22;45.67;;;25.30;;
63276;SDS011;49403;51.046;13.780;2022-11-15T01:34:53;44.95;;;24.10;;
63276;SDS011;49403;51.046;13.780;2022-11-15T01:35:24;45.53;;;23.85;;
63276;SDS011;49403;51.046;13.780;2022-11-15T01:35:55;49.53;;;25.88;;
63276;SDS011;49403;51.046;13.780;2022-11-15T01:36:25;47.05;;;25.35;;
63276;SDS011;49403;51.046;13.780;2022-11-15T01:36:56;45.20;;;24.17;;
63276;SDS011;49403;51.046;13.780;2022-11-15T01:37:27;48.40;;;25.77;;
63276;SDS011;49403;51.046;13.780;2022-11-15T01:37:58;46.78;;;24.83;;
63276;SDS011;49403;51.046;13.780;2022-11-15T01:38:29;46.83;;;24.15;;
63276;SDS011;49403;51.046;13.780;2022-11-15T01:38:59;49.28;;;25.75;;
63276;SDS011;49403;51.046;13.780;2022-11-15T01:39:30;45.83;;;24.80;;
63276;SDS011;49403;51.046;13.780;2022-11-15T01:40:01;43.67;;;24.63;;
63276;SDS011;49403;51.046;13.780;2022-11-15T01:40:33;47.25;;;24.90;;
63276;SDS011;49403;51.046;13.780;2022-11-15T01:41:04;47.00;;;25.23;;
63276;SDS011;49403;51.046;13.780;2022-11-15T01:41:35;44.80;;;24.15;;
63276;SDS011;49403;51.046;13.780;2022-11-15T01:42:08;49.10;;;26.00;;
63276;SDS011;49403;51.046;13.780;2022-11-15T01:42:43;46.63;;;25.45;;
63276;SDS011;49403;51.046;13.780;2022-11-15T01:43:20;46.47;;;24.35;;
63276;SDS011;49403;51.046;13.780;2022-11-15T01:45:01;45.88;;;22.67;;
63276;SDS011;49403;51.046;13.780;2022-11-15T01:45:32;45.25;;;23.77;;
63276;SDS011;49403;51.046;13.780;2022-11-15T01:46:52;46.08;;;23.38;;
63276;SDS011;49403;51.046;13.780;2022-11-15T01:47:24;46.28;;;24.10;;
63276;SDS011;49403;51.046;13.780;2022-11-15T01:47:59;45.17;;;23.90;;
63276;SDS011;49403;51.046;13.780;2022-11-15T01:48:32;49.83;;;23.98;;
63276;SDS011;49403;51.046;13.780;2022-11-15T01:49:05;51.15;;;26.02;;
63276;SDS011;49403;51.046;13.780;2022-11-15T01:49:46;46.40;;;23.55;;
63276;SDS011;49403;51.046;13.780;2022-11-15T01:50:32;48.67;;;24.25;;
63276;SDS011;49403;51.046;13.780;2022-11-15T01:51:09;45.85;;;23.38;;
63276;SDS011;49403;51.046;13.780;2022-11-15T01:51:42;46.40;;;23.35;;
63276;SDS011;49403;51.046;13.780;2022-11-15T01:52:14;47.42;;;23.92;;
63276;SDS011;49403;51.046;13.780;2022-11-15T01:52:49;41.65;;;23.52;;
63276;SDS011;49403;51.046;13.780;2022-11-15T01:53:20;45.65;;;23.55;;
63276;SDS011;49403;51.046;13.780;2022-11-15T01:53:54;51.13;;;24.38;;
63276;SDS011;49403;51.046;13.780;2022-11-15T01:54:27;50.97;;;24.75;;
63276;SDS011;49403;51.046;13.780;2022-11-15T01:55:41;49.85;;;23.75;;
63276;SDS011;49403;51.046;13.780;2022-11-15T01:56:14;47.38;;;23.63;;
63276;SDS011;49403;51.046;13.780;2022-11-15T01:56:59;45.67;;;23.83;;
63276;SDS011;49403;51.046;13.780;2022-11-15T01:57:34;47.50;;;23.65;;
63276;SDS011;49403;51.046;13.780;2022-11-15T01:58:05;49.67;;;24.48;;
63276;SDS011;49403;51.046;13.780;2022-11-15T01:58:36;46.60;;;24.55;;
63276;SDS011;49403;51.046;13.780;2022-11-15T01:59:08;49.28;;;24.27;;
63276;SDS011;49403;51.046;13.780;2022-11-15T01:59:41;51.08;;;24.23;;
63276;SDS011;49403;51.046;13.780;2022-11-15T02:00:15;48.38;;;24.08;;
63276;SDS011;49403;51.046;13.780;2022-11-15T02:00:46;52.85;;;25.02;;
63276;SDS011;49403;51.046;13.780;2022-11-15T02:01:17;47.17;;;23.92;;
63276;SDS011;49403;51.046;13.780;2022-11-15T02:01:49;48.40;;;23.52;;
63276;SDS011;49403;51.046;13.780;2022-11-15T02:02:21;47.08;;;24.13;;
63276;SDS011;49403;51.046;13.780;2022-11-15T02:02:52;45.97;;;23.10;;
63276;SDS011;49403;51.046;13.780;2022-11-15T02:03:23;48.90;;;24.70;;
63276;SDS011;49403;51.046;13.780;2022-11-15T02:04:04;46.35;;;23.50;;
63276;SDS011;49403;51.046;13.780;2022-11-15T02:04:42;45.80;;;23.58;;
63276;SDS011;49403;51.046;13.780;2022-11-15T02:05:15;45.97;;;24.25;;
63276;SDS011;49403;51.046;13.780;2022-11-15T02:05:46;44.20;;;23.70;;
63276;SDS011;49403;51.046;13.780;2022-11-15T02:06:16;47.58;;;24.00;;
63276;SDS011;49403;51.046;13.780;2022-11-15T02:06:48;49.35;;;24.33;;
63276;SDS011;49403;51.046;13.780;2022-11-15T02:07:20;44.30;;;23.55;;
63276;SDS011;49403;51.046;13.780;2022-11-15T02:07:52;47.95;;;23.90;;
63276;SDS011;49403;51.046;13.780;2022-11-15T02:08:23;44.15;;;22.95;;
63276;SDS011;49403;51.046;13.780;2022-11-15T02:08:54;45.88;;;23.25;;
63276;SDS011;49403;51.046;13.780;2022-11-15T02:09:27;50.50;;;24.75;;
63276;SDS011;49403;51.046;13.780;2022-11-15T02:09:58;46.38;;;24.40;;
63276;SDS011;49403;51.046;13.780;2022-11-15T02:10:36;47.05;;;23.98;;
63276;SDS011;49403;51.046;13.780;2022-11-15T02:11:07;49.40;;;24.15;;
63276;SDS011;49403;51.046;13.780;2022-11-15T02:11:39;48.60;;;23.55;;
63276;SDS011;49403;51.046;13.780;2022-11-15T02:12:10;45.70;;;23.58;;
63276;SDS011;49403;51.046;13.780;2022-11-15T02:12:43;46.60;;;24.40;;
63276;SDS011;49403;51.046;13.780;2022-11-15T02:13:14;45.45;;;23.80;;
63276;SDS011;49403;51.046;13.780;2022-11-15T02:13:46;48.63;;;24.25;;
63276;SDS011;49403;51.046;13.780;2022-11-15T02:14:17;54.28;;;24.88;;
63276;SDS011;49403;51.046;13.780;2022-11-15T02:14:51;48.95;;;23.92;;
63276;SDS011;49403;51.046;13.780;2022-11-15T02:15:25;48.95;;;24.95;;
63276;SDS011;49403;51.046;13.780;2022-11-15T02:16:59;47.58;;;23.00;;
63276;SDS011;49403;51.046;13.780;2022-11-15T02:17:45;48.97;;;23.90;;
63276;SDS011;49403;51.046;13.780;2022-11-15T02:18:26;46.03;;;22.77;;
63276;SDS011;49403;51.046;13.780;2022-11-15T02:19:08;49.63;;;24.35;;
63276;SDS011;49403;51.046;13.780;2022-11-15T02:21:40;42.35;;;21.65;;
63276;SDS011;49403;51.046;13.780;2022-11-15T02:22:27;45.00;;;23.20;;
63276;SDS011;49403;51.046;13.780;2022-11-15T02:30:27;44.58;;;22.02;;
63276;SDS011;49403;51.046;13.780;2022-11-15T02:32:18;42.90;;;21.13;;
63276;SDS011;49403;51.046;13.780;2022-11-15T02:32:54;46.90;;;21.95;;
63276;SDS011;49403;51.046;13.780;2022-11-15T02:34:28;43.28;;;21.38;;
63276;SDS011;49403;51.046;13.780;2022-11-15T02:35:20;45.90;;;22.35;;
63276;SDS011;49403;51.046;13.780;2022-11-15T02:36:00;42.25;;;20.52;;
63276;SDS011;49403;51.046;13.780;2022-11-15T02:37:07;43.97;;;21.10;;
63276;SDS011;49403;51.046;13.780;2022-11-15T02:37:52;46.88;;;22.45;;
63276;SDS011;49403;51.046;13.780;2022-11-15T02:38:31;43.78;;;21.92;;
63276;SDS011;49403;51.046;13.780;2022-11-15T02:39:18;48.97;;;22.38;;
63276;SDS011;49403;51.046;13.780;2022-11-15T02:41:20;41.88;;;19.75;;
63276;SDS011;49403;51.046;13.780;2022-11-15T02:42:07;44.60;;;21.77;;
63276;SDS011;49403;51.046;13.780;2022-11-15T02:43:10;41.42;;;20.42;;
63276;SDS011;49403;51.046;13.780;2022-11-15T02:44:04;44.58;;;20.83;;
63276;SDS011;49403;51.046;13.780;2022-11-15T02:44:43;45.85;;;21.40;;
63276;SDS011;49403;51.046;13.780;2022-11-15T02:45:23;48.38;;;22.38;;
63276;SDS011;49403;51.046;13.780;2022-11-15T02:46:07;45.90;;;21.90;;
63276;SDS011;49403;51.046;13.780;2022-11-15T02:46:47;46.17;;;22.90;;
63276;SDS011;49403;51.046;13.780;2022-11-15T02:47:43;48.15;;;21.67;;
63276;SDS011;49403;51.046;13.780;2022-11-15T02:48:16;45.35;;;21.38;;
63276;SDS011;49403;51.046;13.780;2022-11-15T02:48:48;46.15;;;23.00;;
63276;SDS011;49403;51.046;13.780;2022-11-15T02:49:20;46.03;;;22.63;;
63276;SDS011;49403;51.046;13.780;2022-11-15T02:49:53;42.83;;;22.08;;
63276;SDS011;49403;51.046;13.780;2022-11-15T02:50:27;45.17;;;22.80;;
63276;SDS011;49403;51.046;13.780;2022-11-15T02:51:01;42.35;;;22.77;;
63276;SDS011;49403;51.046;13.780;2022-11-15T02:51:33;46.75;;;23.52;;
63276;SDS011;49403;51.046;13.780;2022-11-15T02:52:03;45.10;;;23.08;;
63276;SDS011;49403;51.046;13.780;2022-11-15T02:52:34;44.55;;;22.67;;
63276;SDS011;49403;51.046;13.780;2022-11-15T02:53:05;46.78;;;23.90;;
63276;SDS011;49403;51.046;13.780;2022-11-15T02:53:38;46.45;;;23.42;;
63276;SDS011;49403;51.046;13.780;2022-11-15T02:54:12;47.55;;;23.63;;
63276;SDS011;49403;51.046;13.780;2022-11-15T02:54:54;44.10;;;22.70;;
63276;SDS011;49403;51.046;13.780;2022-11-15T02:55:33;46.83;;;22.08;;
63276;SDS011;49403;51.046;13.780;2022-11-15T02:56:07;45.58;;;23.00;;
63276;SDS011;49403;51.046;13.780;2022-11-15T02:56:42;48.70;;;23.45;;
63276;SDS011;49403;51.046;13.780;2022-11-15T02:57:16;48.47;;;23.33;;
63276;SDS011;49403;51.046;13.780;2022-11-15T02:57:51;47.67;;;23.13;;
63276;SDS011;49403;51.046;13.780;2022-11-15T02:58:35;44.80;;;22.55;;
63276;SDS011;49403;51.046;13.780;2022-11-15T02:59:41;40.35;;;20.73;;
63276;SDS011;49403;51.046;13.780;2022-11-15T03:00:17;44.67;;;21.38;;
63276;SDS011;49403;51.046;13.780;2022-11-15T03:00:58;46.95;;;21.90;;
63276;SDS011;49403;51.046;13.780;2022-11-15T03:07:17;43.38;;;20.95;;
63276;SDS011;49403;51.046;13.780;2022-11-15T03:08:01;42.53;;;21.83;;
63276;SDS011;49403;51.046;13.780;2022-11-15T03:09:02;48.58;;;21.30;;
63276;SDS011;49403;51.046;13.780;2022-11-15T03:10:10;42.25;;;19.90;;
63276;SDS011;49403;51.046;13.780;2022-11-15T03:11:37;45.13;;;21.35;;
63276;SDS011;49403;51.046;13.780;2022-11-15T03:12:17;43.40;;;22.08;;
63276;SDS011;49403;51.046;13.780;2022-11-15T03:14:33;40.97;;;19.98;;
63276;SDS011;49403;51.046;13.780;2022-11-15T03:15:09;43.22;;;19.73;;
63276;SDS011;49403;51.046;13.780;2022-11-15T03:15:50;40.72;;;21.13;;
63276;SDS011;49403;51.046;13.780;2022-11-15T03:17:51;39.13;;;19.73;;
63276;SDS011;49403;51.046;13.780;2022-11-15T03:19:02;39.67;;;19.65;;
63276;SDS011;49403;51.046;13.780;2022-11-15T03:19:42;44.72;;;20.38;;
63276;SDS011;49403;51.046;13.780;2022-11-15T03:20:16;39.83;;;19.73;;
63276;SDS011;49403;51.046;13.780;2022-11-15T03:20:49;43.15;;;21.95;;
63276;SDS011;49403;51.046;13.780;2022-11-15T03:21:20;46.15;;;21.52;;
63276;SDS011;49403;51.046;13.780;2022-11-15T03:21:52;41.53;;;21.25;;
63276;SDS011;49403;51.046;13.780;2022-11-15T03:22:26;42.40;;;22.00;;
63276;SDS011;49403;51.046;13.780;2022-11-15T03:23:03;46.83;;;22.58;;
63276;SDS011;49403;51.046;13.780;2022-11-15T03:23:36;45.17;;;22.40;;
63276;SDS011;49403;51.046;13.780;2022-11-15T03:24:09;41.20;;;21.25;;
63276;SDS011;49403;51.046;13.780;2022-11-15T03:24:43;43.00;;;21.23;;
63276;SDS011;49403;51.046;13.780;2022-11-15T03:25:17;44.60;;;21.63;;
63276;SDS011;49403;51.046;13.780;2022-11-15T03:25:53;43.45;;;21.52;;
63276;SDS011;49403;51.046;13.780;2022-11-15T03:26:25;42.45;;;21.45;;
63276;SDS011;49403;51.046;13.780;2022-11-15T03:26:58;41.80;;;22.08;;
63276;SDS011;49403;51.046;13.780;2022-11-15T03:27:34;47.85;;;22.33;;
63276;SDS011;49403;51.046;13.780;2022-11-15T03:28:09;38.17;;;20.42;;
63276;SDS011;49403;51.046;13.780;2022-11-15T03:29:38;45.60;;;21.23;;
63276;SDS011;49403;51.046;13.780;2022-11-15T03:30:12;41.08;;;20.35;;
63276;SDS011;49403;51.046;13.780;2022-11-15T03:30:44;42.78;;;21.27;;
63276;SDS011;49403;51.046;13.780;2022-11-15T03:31:17;42.10;;;21.20;;
63276;SDS011;49403;51.046;13.780;2022-11-15T03:32:12;42.13;;;20.98;;
63276;SDS011;49403;51.046;13.780;2022-11-15T03:32:50;43.33;;;20.85;;
63276;SDS011;49403;51.046;13.780;2022-11-15T03:33:26;42.65;;;20.20;;
63276;SDS011;49403;51.046;13.780;2022-11-15T03:33:58;44.17;;;20.77;;
63276;SDS011;49403;51.046;13.780;2022-11-15T03:34:40;43.72;;;21.50;;
63276;SDS011;49403;51.046;13.780;2022-11-15T03:35:33;41.40;;;21.05;;
63276;SDS011;49403;51.046;13.780;2022-11-15T03:36:08;45.13;;;21.05;;
63276;SDS011;49403;51.046;13.780;2022-11-15T03:36:40;40.97;;;21.13;;
63276;SDS011;49403;51.046;13.780;2022-11-15T03:37:11;39.60;;;20.45;;
63276;SDS011;49403;51.046;13.780;2022-11-15T03:37:52;44.03;;;21.75;;
63276;SDS011;49403;51.046;13.780;2022-11-15T03:38:42;40.65;;;20.45;;
63276;SDS011;49403;51.046;13.780;2022-11-15T03:39:15;39.85;;;20.88;;
63276;SDS011;49403;51.046;13.780;2022-11-15T03:39:46;45.13;;;22.67;;
63276;SDS011;49403;51.046;13.780;2022-11-15T03:40:17;42.25;;;20.88;;
63276;SDS011;49403;51.046;13.780;2022-11-15T03:40:54;43.95;;;21.52;;
63276;SDS011;49403;51.046;13.780;2022-11-15T03:41:35;41.47;;;20.73;;